createdAt,value
2017-10-13T00:02:04.517Z,10.51
2017-10-13T00:04:32.826Z,10.44
2017-10-13T00:07:01.130Z,10.38
2017-10-13T00:09:30.215Z,10.36
2017-10-13T00:11:59.298Z,10.33
2017-10-13T00:14:27.638Z,10.29
2017-10-13T00:16:55.961Z,10.26
2017-10-13T00:19:25.042Z,10.21
2017-10-13T00:21:53.357Z,10.12
2017-10-13T00:24:21.671Z,10.06
2017-10-13T00:26:50.026Z,10.05
2017-10-13T00:29:18.346Z,10.01
2017-10-13T00:31:46.669Z,10.03
2017-10-13T00:34:14.998Z,10.04
2017-10-13T00:36:43.306Z,10.05
2017-10-13T00:39:12.411Z,10.03
2017-10-13T00:41:41.502Z,10.01
2017-10-13T00:44:10.581Z,9.89
2017-10-13T00:46:38.893Z,9.89
2017-10-13T00:49:07.193Z,9.86
2017-10-13T00:51:35.554Z,9.77
2017-10-13T00:54:03.861Z,9.63
2017-10-13T00:56:32.175Z,9.53
2017-10-13T00:59:01.251Z,9.50
2017-10-13T01:01:29.546Z,9.52
2017-10-13T01:03:58.633Z,9.50
2017-10-13T01:06:26.923Z,9.37
2017-10-13T01:08:55.994Z,9.28
2017-10-13T01:11:24.314Z,9.28
2017-10-13T01:13:52.620Z,9.27
2017-10-13T01:16:20.953Z,9.23
2017-10-13T01:18:50.024Z,9.11
2017-10-13T01:21:18.322Z,8.97
2017-10-13T01:23:47.403Z,9.02
2017-10-13T01:26:15.710Z,9.03
2017-10-13T01:28:44.049Z,8.95
2017-10-13T01:31:12.341Z,8.93
2017-10-13T01:33:41.417Z,8.99
2017-10-13T01:36:09.723Z,8.97
2017-10-13T01:38:38.038Z,8.99
2017-10-13T01:41:06.353Z,8.99
2017-10-13T01:43:34.653Z,8.93
2017-10-13T01:46:03.714Z,8.99
2017-10-13T01:48:32.018Z,8.92
2017-10-13T01:51:01.082Z,8.80
2017-10-13T01:53:29.430Z,8.73
2017-10-13T01:55:57.730Z,8.68
2017-10-13T01:58:26.025Z,8.61
2017-10-13T02:00:54.341Z,8.60
2017-10-13T02:03:22.630Z,8.57
2017-10-13T02:05:50.961Z,8.55
2017-10-13T02:08:19.261Z,8.59
2017-10-13T02:10:47.562Z,8.62
2017-10-13T02:13:15.881Z,8.72
2017-10-13T02:15:44.186Z,8.83
2017-10-13T02:18:13.281Z,8.88
2017-10-13T02:20:42.339Z,8.99
2017-10-13T02:23:10.641Z,9.15
2017-10-13T02:25:38.972Z,9.25
2017-10-13T02:28:07.278Z,9.24
2017-10-13T02:30:35.610Z,9.34
2017-10-13T02:33:03.910Z,9.41
2017-10-13T02:35:32.201Z,9.47
2017-10-13T02:38:00.555Z,9.48
2017-10-13T02:40:28.855Z,9.59
2017-10-13T02:42:57.186Z,9.70
2017-10-13T02:45:26.247Z,9.64
2017-10-13T02:47:54.550Z,9.71
2017-10-13T02:50:23.627Z,9.80
2017-10-13T02:52:51.921Z,9.66
2017-10-13T02:55:21.018Z,9.87
2017-10-13T02:57:50.082Z,9.93
2017-10-13T03:00:18.439Z,10.00
2017-10-13T03:02:46.749Z,10.05
2017-10-13T03:05:15.041Z,10.07
2017-10-13T03:07:44.147Z,10.09
2017-10-13T03:10:13.236Z,10.16
2017-10-13T03:12:42.310Z,10.17
2017-10-13T03:15:10.630Z,10.21
2017-10-13T03:17:38.938Z,10.26
2017-10-13T03:20:07.295Z,10.31
2017-10-13T03:22:35.605Z,10.39
2017-10-13T03:25:03.917Z,10.36
2017-10-13T03:27:33.014Z,10.43
2017-10-13T03:30:02.081Z,10.45
2017-10-13T03:32:31.201Z,10.55
2017-10-13T03:35:00.281Z,10.59
2017-10-13T03:37:28.665Z,10.67
2017-10-13T03:39:56.999Z,10.71
2017-10-13T03:42:25.366Z,10.81
2017-10-13T03:44:53.697Z,10.89
2017-10-13T03:47:22.779Z,11.03
2017-10-13T03:49:51.115Z,11.08
2017-10-13T03:52:19.446Z,11.07
2017-10-13T03:54:47.760Z,11.07
2017-10-13T03:57:16.965Z,11.11
2017-10-13T03:59:47.578Z,11.22
2017-10-13T04:02:15.882Z,11.22
2017-10-13T04:04:44.194Z,11.29
2017-10-13T04:07:12.493Z,11.34
2017-10-13T04:09:41.605Z,11.25
2017-10-13T04:12:10.678Z,11.32
2017-10-13T04:14:38.999Z,11.31
2017-10-13T04:17:07.311Z,11.37
2017-10-13T04:19:35.619Z,11.35
2017-10-13T04:22:04.743Z,11.33
2017-10-13T04:24:33.066Z,11.26
2017-10-13T04:27:01.397Z,11.20
2017-10-13T04:29:29.707Z,11.21
2017-10-13T04:31:58.019Z,11.16
2017-10-13T04:34:27.148Z,11.13
2017-10-13T04:36:55.458Z,11.14
2017-10-13T04:39:23.792Z,11.13
2017-10-13T04:41:52.105Z,11.07
2017-10-13T04:44:20.407Z,11.11
2017-10-13T04:46:48.775Z,11.15
2017-10-13T04:49:17.078Z,11.21
2017-10-13T04:51:45.500Z,11.20
2017-10-13T04:54:13.811Z,11.24
2017-10-13T04:56:42.134Z,11.21
2017-10-13T04:59:10.475Z,11.26
2017-10-13T05:01:38.801Z,11.26
2017-10-13T05:04:07.110Z,11.21
2017-10-13T05:06:35.422Z,11.19
2017-10-13T05:09:04.540Z,11.09
2017-10-13T05:11:32.877Z,11.09
2017-10-13T05:14:01.200Z,11.12
2017-10-13T05:16:29.518Z,11.08
2017-10-13T05:18:57.862Z,11.01
2017-10-13T05:21:26.170Z,10.99
2017-10-13T05:23:54.508Z,10.93
2017-10-13T05:26:22.819Z,11.00
2017-10-13T05:28:51.127Z,10.97
2017-10-13T05:31:19.450Z,10.96
2017-10-13T05:33:47.763Z,10.95
2017-10-13T05:36:16.124Z,10.97
2017-10-13T05:38:44.993Z,10.93
2017-10-13T05:41:13.304Z,10.96
2017-10-13T05:43:41.642Z,10.96
2017-10-13T05:46:09.941Z,11.01
2017-10-13T05:48:38.281Z,10.96
2017-10-13T05:51:07.359Z,10.97
2017-10-13T05:53:35.710Z,11.03
2017-10-13T05:56:04.041Z,11.02
2017-10-13T05:58:33.359Z,11.05
2017-10-13T06:01:01.690Z,11.09
2017-10-13T06:03:30.016Z,11.14
2017-10-13T06:05:58.335Z,11.16
2017-10-13T06:08:26.674Z,11.17
2017-10-13T06:10:54.977Z,11.18
2017-10-13T06:13:23.322Z,11.19
2017-10-13T06:15:51.634Z,11.16
2017-10-13T06:18:19.963Z,11.19
2017-10-13T06:20:48.281Z,11.28
2017-10-13T06:23:16.594Z,11.34
2017-10-13T06:25:45.327Z,11.33
2017-10-13T06:28:13.630Z,11.32
2017-10-13T06:30:41.962Z,11.27
2017-10-13T06:33:10.284Z,11.40
2017-10-13T06:35:38.608Z,11.43
2017-10-13T06:38:07.740Z,12.17
2017-10-13T06:40:36.046Z,11.85
2017-10-13T06:43:04.357Z,11.86
2017-10-13T06:45:33.446Z,11.96
2017-10-13T06:48:02.510Z,12.19
2017-10-13T06:50:30.846Z,12.33
2017-10-13T06:52:59.155Z,12.43
2017-10-13T06:55:27.482Z,12.51
2017-10-13T06:57:55.805Z,12.73
2017-10-13T07:00:24.131Z,12.81
2017-10-13T07:02:53.237Z,12.84
2017-10-13T07:05:22.322Z,12.73
2017-10-13T07:07:51.404Z,12.87
2017-10-13T07:10:19.727Z,13.10
2017-10-13T07:12:48.034Z,13.25
2017-10-13T07:15:16.378Z,13.23
2017-10-13T07:17:44.678Z,13.31
2017-10-13T07:20:12.992Z,13.32
2017-10-13T07:22:41.318Z,13.57
2017-10-13T07:25:09.694Z,13.82
2017-10-13T07:27:38.051Z,13.84
2017-10-13T07:30:06.363Z,13.66
2017-10-13T07:32:34.689Z,13.90
2017-10-13T07:35:03.785Z,13.90
2017-10-13T07:37:32.873Z,14.25
2017-10-13T07:40:01.209Z,14.10
2017-10-13T07:42:29.514Z,14.23
2017-10-13T07:44:57.809Z,14.42
2017-10-13T07:47:26.897Z,14.56
2017-10-13T07:49:55.201Z,14.54
2017-10-13T07:52:23.546Z,14.99
2017-10-13T07:54:51.854Z,15.03
2017-10-13T07:57:20.158Z,15.20
2017-10-13T07:59:48.531Z,15.43
2017-10-13T08:02:16.845Z,15.42
2017-10-13T08:04:45.183Z,15.30
2017-10-13T08:07:13.489Z,15.47
2017-10-13T08:09:41.797Z,15.83
2017-10-13T08:12:10.879Z,15.72
2017-10-13T08:14:39.211Z,16.05
2017-10-13T08:17:07.566Z,16.15
2017-10-13T08:19:36.653Z,16.57
2017-10-13T08:22:05.737Z,16.66
2017-10-13T08:24:34.073Z,16.55
2017-10-13T08:27:02.384Z,16.74
2017-10-13T08:29:30.718Z,16.66
2017-10-13T08:31:59.026Z,16.41
2017-10-13T08:34:27.337Z,16.67
2017-10-13T08:36:56.409Z,16.59
2017-10-13T08:39:24.712Z,16.93
2017-10-13T08:41:53.822Z,16.47
2017-10-13T08:44:22.136Z,16.88
2017-10-13T08:46:50.459Z,16.68
2017-10-13T08:49:19.039Z,16.71
2017-10-13T08:51:48.113Z,17.24
2017-10-13T08:54:16.455Z,17.99
2017-10-13T08:56:44.775Z,17.88
2017-10-13T08:59:13.081Z,18.37
2017-10-13T09:01:42.158Z,18.43
2017-10-13T09:04:11.245Z,18.46
2017-10-13T09:06:40.370Z,18.26
2017-10-13T09:09:08.688Z,19.15
2017-10-13T09:11:36.998Z,19.41
2017-10-13T09:14:05.313Z,19.36
2017-10-13T09:16:33.638Z,18.56
2017-10-13T09:19:01.991Z,18.96
2017-10-13T09:21:30.300Z,20.94
2017-10-13T09:23:58.611Z,21.14
2017-10-13T09:26:26.935Z,20.82
2017-10-13T09:28:55.254Z,20.27
2017-10-13T09:31:24.367Z,21.23
2017-10-13T09:33:52.686Z,20.62
2017-10-13T09:36:21.002Z,19.88
2017-10-13T09:38:50.086Z,19.86
2017-10-13T09:41:18.403Z,18.41
2017-10-13T09:43:46.787Z,19.60
2017-10-13T09:46:15.107Z,20.92
2017-10-13T09:48:43.410Z,20.36
2017-10-13T09:51:12.490Z,20.43
2017-10-13T09:53:40.811Z,19.20
2017-10-13T09:56:09.186Z,21.95
2017-10-13T09:58:37.494Z,20.75
2017-10-13T10:01:05.804Z,20.38
2017-10-13T10:03:34.126Z,20.81
2017-10-13T10:06:02.427Z,20.60
2017-10-13T10:08:30.772Z,19.67
2017-10-13T10:10:59.087Z,20.24
2017-10-13T10:13:27.413Z,19.79
2017-10-13T10:15:56.494Z,19.35
2017-10-13T10:18:25.561Z,19.23
2017-10-13T10:20:53.907Z,19.03
2017-10-13T10:23:22.213Z,19.17
2017-10-13T10:25:50.521Z,18.39
2017-10-13T10:28:19.608Z,17.88
2017-10-13T10:30:47.926Z,17.78
2017-10-13T10:33:16.278Z,17.62
2017-10-13T10:35:45.367Z,17.83
2017-10-13T10:38:14.445Z,18.42
2017-10-13T10:40:42.778Z,18.26
2017-10-13T10:43:11.134Z,18.48
2017-10-13T10:45:40.241Z,18.79
2017-10-13T10:48:08.566Z,18.42
2017-10-13T10:50:36.878Z,18.72
2017-10-13T10:53:05.961Z,18.47
2017-10-13T10:55:35.048Z,18.79
2017-10-13T10:58:04.141Z,18.35
2017-10-13T11:00:32.450Z,18.31
2017-10-13T11:03:00.779Z,18.45
2017-10-13T11:05:29.083Z,19.05
2017-10-13T11:07:58.162Z,19.14
2017-10-13T11:10:26.470Z,18.86
2017-10-13T11:12:55.554Z,18.63
2017-10-13T11:15:24.627Z,18.94
2017-10-13T11:17:52.991Z,19.29
2017-10-13T11:20:21.307Z,19.83
2017-10-13T11:22:50.386Z,19.94
2017-10-13T11:25:19.478Z,19.62
2017-10-13T11:27:47.796Z,19.52
2017-10-13T11:30:16.114Z,19.14
2017-10-13T11:32:45.206Z,19.29
2017-10-13T11:35:13.522Z,18.98
2017-10-13T11:37:42.593Z,18.64
2017-10-13T11:40:10.910Z,18.88
2017-10-13T11:42:39.329Z,18.57
2017-10-13T11:45:07.650Z,18.67
2017-10-13T11:47:36.726Z,18.98
2017-10-13T11:50:05.051Z,18.51
2017-10-13T11:52:33.373Z,18.44
2017-10-13T11:55:01.690Z,18.74
2017-10-13T11:57:30.007Z,18.81
2017-10-13T11:59:58.359Z,18.71
2017-10-13T12:02:26.670Z,18.68
2017-10-13T12:04:54.974Z,18.74
2017-10-13T12:07:23.322Z,18.54
2017-10-13T12:09:51.635Z,18.74
2017-10-13T12:12:19.950Z,18.98
2017-10-13T12:14:48.254Z,18.79
2017-10-13T12:17:16.570Z,18.53
2017-10-13T12:19:45.646Z,18.60
2017-10-13T12:22:13.967Z,18.59
2017-10-13T12:24:42.287Z,18.70
2017-10-13T12:27:10.607Z,18.62
2017-10-13T12:29:39.676Z,18.84
2017-10-13T12:32:07.996Z,18.95
2017-10-13T12:34:36.304Z,18.88
2017-10-13T12:37:04.617Z,19.14
2017-10-13T12:39:32.925Z,19.30
2017-10-13T12:42:01.278Z,19.26
2017-10-13T12:44:29.600Z,18.83
2017-10-13T12:46:57.907Z,18.68
2017-10-13T12:49:26.993Z,18.85
2017-10-13T12:51:55.303Z,18.96
2017-10-13T12:54:23.622Z,18.74
2017-10-13T12:56:51.925Z,18.11
2017-10-13T12:59:20.229Z,18.12
2017-10-13T13:01:48.540Z,17.90
2017-10-13T13:04:16.870Z,18.37
2017-10-13T13:06:45.189Z,18.64
2017-10-13T13:09:14.262Z,18.05
2017-10-13T13:11:42.562Z,18.36
2017-10-13T13:14:11.635Z,18.44
2017-10-13T13:16:39.934Z,18.46
2017-10-13T13:19:08.288Z,18.67
2017-10-13T13:21:36.593Z,18.69
2017-10-13T13:24:04.895Z,18.39
2017-10-13T13:26:33.212Z,18.48
2017-10-13T13:29:01.523Z,18.53
2017-10-13T13:31:29.842Z,18.55
2017-10-13T13:33:58.155Z,18.57
2017-10-13T13:36:27.250Z,18.64
2017-10-13T13:38:56.334Z,18.18
2017-10-13T13:41:24.929Z,18.15
2017-10-13T13:43:54.005Z,18.48
2017-10-13T13:46:22.337Z,18.59
2017-10-13T13:48:50.650Z,18.49
2017-10-13T13:51:18.970Z,18.51
2017-10-13T13:53:48.043Z,18.67
2017-10-13T13:56:16.368Z,18.67
2017-10-13T13:58:44.682Z,18.42
2017-10-13T14:01:13.028Z,18.35
2017-10-13T14:03:41.337Z,18.17
2017-10-13T14:06:10.418Z,18.31
2017-10-13T14:08:38.730Z,17.98
2017-10-13T14:11:07.827Z,17.93
2017-10-13T14:13:36.910Z,17.85
2017-10-13T14:16:05.216Z,17.80
2017-10-13T14:18:34.306Z,17.71
2017-10-13T14:21:03.374Z,17.87
2017-10-13T14:23:31.690Z,18.06
2017-10-13T14:26:00.017Z,18.08
2017-10-13T14:28:28.334Z,18.46
2017-10-13T14:30:57.429Z,18.49
2017-10-13T14:33:26.521Z,18.53
2017-10-13T14:35:55.590Z,18.51
2017-10-13T14:38:23.910Z,18.48
2017-10-13T14:40:52.232Z,18.44
2017-10-13T14:43:20.575Z,18.65
2017-10-13T14:45:48.885Z,18.57
2017-10-13T14:48:17.186Z,18.58
2017-10-13T14:50:45.499Z,18.42
2017-10-13T14:53:13.811Z,18.42
2017-10-13T14:55:42.142Z,18.10
2017-10-13T14:58:11.224Z,18.24
2017-10-13T15:00:39.548Z,18.00
2017-10-13T15:03:07.867Z,18.06
2017-10-13T15:05:36.195Z,17.95
2017-10-13T15:08:04.505Z,18.06
2017-10-13T15:10:32.818Z,18.22
2017-10-13T15:13:01.881Z,18.14
2017-10-13T15:15:30.223Z,17.92
2017-10-13T15:17:58.525Z,17.86
2017-10-13T15:20:26.835Z,17.79
2017-10-13T15:22:55.163Z,17.52
2017-10-13T15:25:29.002Z,17.57
2017-10-13T15:28:02.678Z,17.52
2017-10-13T15:30:36.392Z,17.40
2017-10-13T15:33:10.191Z,17.36
2017-10-13T15:38:51.688Z,17.21
2017-10-13T15:41:25.473Z,17.25
2017-10-13T15:47:06.021Z,16.98
2017-10-13T15:49:39.916Z,16.95
2017-10-13T15:52:13.659Z,16.85
2017-10-13T15:54:42.725Z,16.74
2017-10-13T15:57:11.065Z,16.65
2017-10-13T15:59:39.370Z,16.49
2017-10-13T16:02:07.684Z,16.41
2017-10-13T16:04:36.769Z,16.29
2017-10-13T16:07:05.843Z,16.15
2017-10-13T16:09:34.160Z,16.02
2017-10-13T16:12:02.483Z,15.94
2017-10-13T16:14:30.803Z,15.79
2017-10-13T16:16:59.874Z,15.73
2017-10-13T16:19:28.207Z,15.64
2017-10-13T16:21:56.507Z,15.55
2017-10-13T16:24:24.819Z,15.41
2017-10-13T16:26:53.135Z,15.28
2017-10-13T16:29:21.434Z,15.23
2017-10-13T16:31:49.759Z,15.15
2017-10-13T16:34:18.830Z,15.05
2017-10-13T16:36:47.164Z,14.97
2017-10-13T16:39:15.468Z,14.93
2017-10-13T16:41:43.782Z,14.89
2017-10-13T16:44:12.094Z,14.76
2017-10-13T16:46:40.419Z,14.71
2017-10-13T16:49:08.754Z,14.65
2017-10-13T16:51:37.058Z,14.54
2017-10-13T16:54:05.387Z,14.44
2017-10-13T16:56:33.700Z,14.35
2017-10-13T16:59:02.018Z,14.28
2017-10-13T17:01:30.325Z,14.24
2017-10-13T17:03:58.633Z,14.19
2017-10-13T17:06:26.930Z,14.15
2017-10-13T17:08:55.270Z,14.23
2017-10-13T17:11:23.575Z,14.33
2017-10-13T17:13:51.881Z,14.45
2017-10-13T17:16:20.204Z,14.57
2017-10-13T17:18:48.505Z,14.62
2017-10-13T17:21:16.829Z,14.72
2017-10-13T17:23:45.902Z,14.78
2017-10-13T17:26:14.219Z,14.84
2017-10-13T17:28:42.533Z,14.87
2017-10-13T17:31:10.873Z,14.88
2017-10-13T17:33:39.180Z,14.82
2017-10-13T17:36:07.487Z,14.74
2017-10-13T17:38:35.806Z,14.73
2017-10-13T17:41:04.111Z,14.72
2017-10-13T17:43:32.441Z,14.74
2017-10-13T17:46:01.527Z,14.72
2017-10-13T17:48:30.607Z,14.70
2017-10-13T17:50:58.930Z,14.69
2017-10-13T17:53:27.279Z,14.64
2017-10-13T17:55:56.361Z,14.68
2017-10-13T17:58:24.678Z,14.66
2017-10-13T18:00:52.999Z,14.71
2017-10-13T18:03:21.304Z,14.70
2017-10-13T18:05:50.397Z,14.52
2017-10-13T18:08:18.722Z,14.43
2017-10-13T18:10:47.055Z,14.34
2017-10-13T18:13:16.147Z,14.23
2017-10-13T18:15:44.489Z,14.13
2017-10-13T18:18:12.801Z,14.00
2017-10-13T18:20:41.116Z,13.92
2017-10-13T18:23:09.444Z,13.86
2017-10-13T18:25:37.754Z,13.77
2017-10-13T18:28:06.877Z,13.70
2017-10-13T18:30:35.191Z,13.69
2017-10-13T18:33:03.522Z,13.62
2017-10-13T18:35:31.830Z,13.55
2017-10-13T18:38:00.173Z,13.51
2017-10-13T18:40:28.492Z,13.43
2017-10-13T18:42:56.815Z,13.36
2017-10-13T18:45:25.906Z,13.28
2017-10-13T18:47:54.986Z,13.23
2017-10-13T18:50:23.306Z,13.18
2017-10-13T18:52:51.623Z,13.09
2017-10-13T18:55:19.978Z,13.04
2017-10-13T18:57:48.295Z,13.02
2017-10-13T19:00:16.612Z,12.98
2017-10-13T19:02:44.937Z,12.94
2017-10-13T19:05:13.321Z,12.90
2017-10-13T19:07:41.643Z,12.92
2017-10-13T19:10:09.968Z,12.88
2017-10-13T19:12:38.307Z,12.82
2017-10-13T19:15:06.649Z,12.79
2017-10-13T19:17:35.726Z,12.72
2017-10-13T19:20:04.059Z,12.62
2017-10-13T19:22:32.432Z,12.56
2017-10-13T19:25:00.758Z,12.49
2017-10-13T19:27:29.119Z,12.51
2017-10-13T19:29:57.434Z,12.49
2017-10-13T19:32:26.510Z,12.50
2017-10-13T19:34:54.834Z,12.48
2017-10-13T19:37:23.154Z,12.43
2017-10-13T19:39:51.470Z,12.36
2017-10-13T19:42:20.600Z,12.26
2017-10-13T19:44:48.917Z,12.26
2017-10-13T19:47:17.287Z,12.24
2017-10-13T19:49:45.690Z,12.27
2017-10-13T19:52:14.767Z,12.26
2017-10-13T19:54:43.313Z,12.27
2017-10-13T19:57:11.625Z,12.27
2017-10-13T19:59:39.984Z,12.28
2017-10-13T20:02:08.318Z,12.30
2017-10-13T20:04:36.642Z,12.23
2017-10-13T20:07:04.994Z,12.20
2017-10-13T20:09:33.422Z,12.10
2017-10-13T20:12:01.733Z,12.01
2017-10-13T20:14:30.067Z,12.03
2017-10-13T20:16:58.387Z,12.04
2017-10-13T20:19:26.706Z,12.01
2017-10-13T20:21:55.019Z,11.96
2017-10-13T20:24:24.120Z,11.86
2017-10-13T20:26:53.241Z,11.85
2017-10-13T20:29:21.553Z,11.82
2017-10-13T20:31:49.921Z,11.80
2017-10-13T20:34:18.242Z,11.77
2017-10-13T20:36:46.567Z,11.72
2017-10-13T20:39:14.894Z,11.74
2017-10-13T20:41:43.210Z,11.67
2017-10-13T20:44:11.584Z,11.64
2017-10-13T20:46:39.908Z,11.63
2017-10-13T20:49:08.213Z,11.61
2017-10-13T20:51:37.306Z,11.64
2017-10-13T20:54:05.664Z,11.63
2017-10-13T20:56:33.986Z,11.73
2017-10-13T20:59:02.298Z,11.74
2017-10-13T21:01:30.642Z,11.75
2017-10-13T21:03:58.969Z,11.79
2017-10-13T21:06:27.302Z,11.82
2017-10-13T21:08:55.605Z,11.93
2017-10-13T21:11:23.925Z,12.04
2017-10-13T21:13:53.028Z,12.11
2017-10-13T21:16:22.127Z,12.15
2017-10-13T21:18:51.210Z,12.16
2017-10-13T21:21:19.519Z,12.13
2017-10-13T21:23:47.856Z,12.09
2017-10-13T21:26:16.162Z,12.04
2017-10-13T21:28:45.253Z,12.03
2017-10-13T21:31:14.329Z,12.04
2017-10-13T21:33:42.655Z,12.06
2017-10-13T21:36:10.967Z,12.03
2017-10-13T21:38:39.309Z,12.00
2017-10-13T21:41:07.629Z,11.97
2017-10-13T21:43:35.945Z,11.96
2017-10-13T21:46:04.270Z,11.96
2017-10-13T21:48:32.607Z,12.03
2017-10-13T21:51:00.937Z,12.06
2017-10-13T21:53:29.276Z,12.11
2017-10-13T21:55:57.581Z,12.07
2017-10-13T21:58:25.910Z,12.03
2017-10-13T22:00:54.238Z,12.00
2017-10-13T22:03:22.550Z,11.98
2017-10-13T22:05:51.643Z,11.98
2017-10-13T22:08:20.720Z,11.95
2017-10-13T22:10:49.073Z,11.96
2017-10-13T22:13:17.387Z,11.88
2017-10-13T22:15:45.727Z,11.79
2017-10-13T22:18:14.047Z,11.76
2017-10-13T22:20:43.134Z,11.78
2017-10-13T22:23:11.445Z,11.83
2017-10-13T22:25:39.779Z,11.88
2017-10-13T22:28:08.099Z,11.90
2017-10-13T22:30:36.439Z,11.94
2017-10-13T22:33:04.741Z,11.96
2017-10-13T22:35:33.834Z,11.99
2017-10-13T22:38:02.922Z,12.00
2017-10-13T22:40:32.001Z,12.06
2017-10-13T22:43:00.316Z,12.07
2017-10-13T22:45:28.622Z,12.10
2017-10-13T22:47:56.941Z,12.13
2017-10-13T22:50:25.245Z,12.18
2017-10-13T22:52:53.562Z,12.21
2017-10-13T22:55:21.886Z,12.21
2017-10-13T22:57:50.982Z,12.19
2017-10-13T23:00:20.058Z,12.20
2017-10-13T23:02:48.396Z,12.21
2017-10-13T23:05:16.714Z,12.20
2017-10-13T23:07:45.050Z,12.20
2017-10-13T23:10:13.357Z,12.20
2017-10-13T23:12:41.678Z,12.14
2017-10-13T23:15:09.987Z,12.13
2017-10-13T23:17:38.314Z,12.06
2017-10-13T23:20:07.411Z,12.01
2017-10-13T23:22:36.495Z,12.03
2017-10-13T23:25:04.826Z,12.01
2017-10-13T23:27:33.142Z,12.03
2017-10-13T23:30:01.461Z,12.03
2017-10-13T23:32:29.763Z,12.01
2017-10-13T23:34:58.083Z,12.00
2017-10-13T23:37:26.403Z,11.99
2017-10-13T23:39:54.731Z,11.93
2017-10-13T23:42:23.065Z,11.93
2017-10-13T23:44:51.448Z,11.99
2017-10-13T23:47:19.775Z,11.99
2017-10-13T23:49:48.870Z,11.98
2017-10-13T23:52:17.186Z,11.91
2017-10-13T23:54:45.510Z,11.86
2017-10-13T23:57:13.835Z,11.91
2017-10-13T23:59:42.163Z,12.02
